sensor_id;sensor_type;location;lat;lon;timestamp;pressure;altitude;pressure_sealevel;temperature;humidity
49949;BME280;35840;45.982;8.890;2022-11-30T00:01:10;98470.50;;;6.64;82.97
49949;BME280;35840;45.982;8.890;2022-11-30T00:03:37;98462.69;;;6.67;82.76
49949;BME280;35840;45.982;8.890;2022-11-30T00:06:05;98459.19;;;6.70;82.50
49949;BME280;35840;45.982;8.890;2022-11-30T00:08:32;98457.53;;;6.69;82.86
49949;BME280;35840;45.982;8.890;2022-11-30T00:10:59;98448.97;;;6.70;82.64
49949;BME280;35840;45.982;8.890;2022-11-30T00:13:26;98456.06;;;6.63;82.72
49949;BME280;35840;45.982;8.890;2022-11-30T00:15:53;98449.50;;;6.58;83.24
49949;BME280;35840;45.982;8.890;2022-11-30T00:18:19;98449.44;;;6.59;82.99
49949;BME280;35840;45.982;8.890;2022-11-30T00:20:46;98439.75;;;6.47;83.06
49949;BME280;35840;45.982;8.890;2022-11-30T00:23:12;98443.84;;;6.51;83.08
49949;BME280;35840;45.982;8.890;2022-11-30T00:25:39;98440.44;;;6.50;83.21
49949;BME280;35840;45.982;8.890;2022-11-30T00:28:06;98437.94;;;6.49;83.05
49949;BME280;35840;45.982;8.890;2022-11-30T00:30:33;98441.78;;;6.59;82.72
49949;BME280;35840;45.982;8.890;2022-11-30T00:33:00;98437.28;;;6.64;82.81
49949;BME280;35840;45.982;8.890;2022-11-30T00:35:27;98440.25;;;6.55;83.05
49949;BME280;35840;45.982;8.890;2022-11-30T00:37:53;98432.31;;;6.61;82.80
49949;BME280;35840;45.982;8.890;2022-11-30T00:40:20;98427.97;;;6.63;83.01
49949;BME280;35840;45.982;8.890;2022-11-30T00:42:47;98432.31;;;6.61;83.10
49949;BME280;35840;45.982;8.890;2022-11-30T00:45:14;98422.84;;;6.63;83.18
49949;BME280;35840;45.982;8.890;2022-11-30T00:47:41;98418.72;;;6.61;82.67
49949;BME280;35840;45.982;8.890;2022-11-30T00:50:08;98413.88;;;6.54;83.25
49949;BME280;35840;45.982;8.890;2022-11-30T00:52:34;98415.53;;;6.55;83.61
49949;BME280;35840;45.982;8.890;2022-11-30T00:55:01;98408.91;;;6.51;83.35
49949;BME280;35840;45.982;8.890;2022-11-30T00:57:29;98416.75;;;6.47;83.64
49949;BME280;35840;45.982;8.890;2022-11-30T00:59:56;98422.63;;;6.49;83.53
49949;BME280;35840;45.982;8.890;2022-11-30T01:02:23;98424.22;;;6.51;83.38
49949;BME280;35840;45.982;8.890;2022-11-30T01:04:50;98428.66;;;6.48;83.42
49949;BME280;35840;45.982;8.890;2022-11-30T01:07:17;98423.00;;;6.60;83.34
49949;BME280;35840;45.982;8.890;2022-11-30T01:09:43;98419.53;;;6.61;82.80
49949;BME280;35840;45.982;8.890;2022-11-30T01:12:10;98423.91;;;6.59;83.37
49949;BME280;35840;45.982;8.890;2022-11-30T01:14:37;98426.84;;;6.50;83.52
49949;BME280;35840;45.982;8.890;2022-11-30T01:17:03;98429.66;;;6.44;83.38
49949;BME280;35840;45.982;8.890;2022-11-30T01:19:30;98417.72;;;6.44;83.29
49949;BME280;35840;45.982;8.890;2022-11-30T01:21:57;98415.81;;;6.49;83.36
49949;BME280;35840;45.982;8.890;2022-11-30T01:24:23;98424.41;;;6.47;83.70
49949;BME280;35840;45.982;8.890;2022-11-30T01:26:50;98414.34;;;6.44;83.97
49949;BME280;35840;45.982;8.890;2022-11-30T01:29:17;98416.84;;;6.45;83.66
49949;BME280;35840;45.982;8.890;2022-11-30T01:31:44;98414.34;;;6.44;83.95
49949;BME280;35840;45.982;8.890;2022-11-30T01:34:10;98413.56;;;6.42;83.95
49949;BME280;35840;45.982;8.890;2022-11-30T01:36:37;98410.06;;;6.44;84.03
49949;BME280;35840;45.982;8.890;2022-11-30T01:39:06;98413.31;;;6.48;83.82
49949;BME280;35840;45.982;8.890;2022-11-30T01:41:35;98418.28;;;6.51;83.69
49949;BME280;35840;45.982;8.890;2022-11-30T01:46:52;98417.94;;;6.59;83.34
49949;BME280;35840;45.982;8.890;2022-11-30T01:49:29;98422.16;;;6.60;83.28
49949;BME280;35840;45.982;8.890;2022-11-30T01:52:02;98419.91;;;6.33;84.02
49949;BME280;35840;45.982;8.890;2022-11-30T01:54:35;98414.06;;;6.29;84.27
49949;BME280;35840;45.982;8.890;2022-11-30T01:57:10;98412.31;;;6.31;84.27
49949;BME280;35840;45.982;8.890;2022-11-30T01:59:40;98414.66;;;6.36;84.19
49949;BME280;35840;45.982;8.890;2022-11-30T02:02:07;98412.88;;;6.38;83.51
49949;BME280;35840;45.982;8.890;2022-11-30T02:04:35;98404.56;;;6.33;83.95
49949;BME280;35840;45.982;8.890;2022-11-30T02:07:04;98407.84;;;6.36;83.78
49949;BME280;35840;45.982;8.890;2022-11-30T02:09:39;98405.28;;;6.36;83.03
49949;BME280;35840;45.982;8.890;2022-11-30T02:12:14;98402.16;;;6.30;82.99
49949;BME280;35840;45.982;8.890;2022-11-30T02:14:48;98401.28;;;6.31;83.43
49949;BME280;35840;45.982;8.890;2022-11-30T02:17:54;98405.81;;;6.24;83.74
49949;BME280;35840;45.982;8.890;2022-11-30T02:20:32;98405.28;;;6.16;83.85
49949;BME280;35840;45.982;8.890;2022-11-30T02:31:03;98403.06;;;6.08;83.76
49949;BME280;35840;45.982;8.890;2022-11-30T02:33:32;98404.78;;;6.08;83.94
49949;BME280;35840;45.982;8.890;2022-11-30T02:36:02;98401.59;;;6.02;83.75
49949;BME280;35840;45.982;8.890;2022-11-30T02:38:29;98399.88;;;6.03;83.20
49949;BME280;35840;45.982;8.890;2022-11-30T02:40:56;98399.22;;;5.98;84.00
49949;BME280;35840;45.982;8.890;2022-11-30T02:43:25;98404.47;;;5.93;84.42
49949;BME280;35840;45.982;8.890;2022-11-30T02:46:10;98421.22;;;6.00;83.99
49949;BME280;35840;45.982;8.890;2022-11-30T02:51:17;98413.56;;;6.00;83.11
49949;BME280;35840;45.982;8.890;2022-11-30T02:53:44;98410.06;;;6.03;83.03
49949;BME280;35840;45.982;8.890;2022-11-30T02:56:12;98418.53;;;6.03;82.73
49949;BME280;35840;45.982;8.890;2022-11-30T02:58:39;98411.66;;;6.06;82.49
49949;BME280;35840;45.982;8.890;2022-11-30T03:01:06;98409.13;;;6.06;82.72
49949;BME280;35840;45.982;8.890;2022-11-30T03:03:33;98418.97;;;5.93;82.65
49949;BME280;35840;45.982;8.890;2022-11-30T03:05:59;98405.16;;;5.76;82.52
49949;BME280;35840;45.982;8.890;2022-11-30T03:08:26;98415.97;;;5.61;83.68
49949;BME280;35840;45.982;8.890;2022-11-30T03:10:53;98421.28;;;5.77;83.19
49949;BME280;35840;45.982;8.890;2022-11-30T03:13:19;98417.56;;;5.85;83.02
49949;BME280;35840;45.982;8.890;2022-11-30T03:15:46;98422.66;;;5.85;82.96
49949;BME280;35840;45.982;8.890;2022-11-30T03:18:20;98430.34;;;5.84;82.35
49949;BME280;35840;45.982;8.890;2022-11-30T03:20:47;98435.34;;;5.87;82.38
49949;BME280;35840;45.982;8.890;2022-11-30T03:23:14;98430.06;;;5.69;82.31
49949;BME280;35840;45.982;8.890;2022-11-30T03:25:40;98439.53;;;5.67;82.63
49949;BME280;35840;45.982;8.890;2022-11-30T03:28:07;98430.38;;;5.62;82.57
49949;BME280;35840;45.982;8.890;2022-11-30T03:30:34;98443.78;;;5.67;82.48
49949;BME280;35840;45.982;8.890;2022-11-30T03:33:00;98444.03;;;5.61;82.61
49949;BME280;35840;45.982;8.890;2022-11-30T03:35:27;98438.25;;;5.56;82.26
49949;BME280;35840;45.982;8.890;2022-11-30T03:37:53;98438.25;;;5.56;82.32
49949;BME280;35840;45.982;8.890;2022-11-30T03:40:20;98433.22;;;5.54;82.55
49949;BME280;35840;45.982;8.890;2022-11-30T03:42:47;98434.47;;;5.66;82.09
49949;BME280;35840;45.982;8.890;2022-11-30T03:45:13;98434.47;;;5.66;81.76
49949;BME280;35840;45.982;8.890;2022-11-30T03:47:40;98429.13;;;5.72;81.94
49949;BME280;35840;45.982;8.890;2022-11-30T03:50:07;98433.09;;;5.79;81.92
49949;BME280;35840;45.982;8.890;2022-11-30T03:52:34;98426.03;;;5.86;81.20
49949;BME280;35840;45.982;8.890;2022-11-30T03:55:01;98431.81;;;5.90;80.75
49949;BME280;35840;45.982;8.890;2022-11-30T03:57:27;98434.50;;;5.86;80.34
49949;BME280;35840;45.982;8.890;2022-11-30T03:59:54;98432.03;;;5.85;80.40
49949;BME280;35840;45.982;8.890;2022-11-30T04:02:21;98428.66;;;5.84;80.67
49949;BME280;35840;45.982;8.890;2022-11-30T04:04:48;98430.53;;;5.79;81.12
49949;BME280;35840;45.982;8.890;2022-11-30T04:07:15;98425.50;;;5.56;81.10
49949;BME280;35840;45.982;8.890;2022-11-30T04:09:42;98426.56;;;5.50;81.50
49949;BME280;35840;45.982;8.890;2022-11-30T04:12:08;98425.56;;;5.54;82.32
49949;BME280;35840;45.982;8.890;2022-11-30T04:14:35;98426.78;;;5.67;81.58
49949;BME280;35840;45.982;8.890;2022-11-30T04:17:02;98425.09;;;5.66;81.43
49949;BME280;35840;45.982;8.890;2022-11-30T04:19:28;98424.22;;;5.67;81.79
49949;BME280;35840;45.982;8.890;2022-11-30T04:21:55;98426.56;;;5.72;80.36
49949;BME280;35840;45.982;8.890;2022-11-30T04:24:21;98427.47;;;5.71;80.15
49949;BME280;35840;45.982;8.890;2022-11-30T04:26:48;98422.53;;;5.66;79.30
49949;BME280;35840;45.982;8.890;2022-11-30T04:29:15;98424.34;;;5.64;79.65
49949;BME280;35840;45.982;8.890;2022-11-30T04:31:41;98418.69;;;5.34;79.97
49949;BME280;35840;45.982;8.890;2022-11-30T04:34:08;98425.22;;;5.41;80.27
49949;BME280;35840;45.982;8.890;2022-11-30T04:36:35;98419.97;;;5.46;79.75
49949;BME280;35840;45.982;8.890;2022-11-30T04:39:02;98424.16;;;5.47;79.67
49949;BME280;35840;45.982;8.890;2022-11-30T04:41:28;98417.09;;;5.31;79.65
49949;BME280;35840;45.982;8.890;2022-11-30T04:43:55;98423.50;;;5.20;80.11
49949;BME280;35840;45.982;8.890;2022-11-30T04:46:22;98393.47;;;5.04;80.40
49949;BME280;35840;45.982;8.890;2022-11-30T04:48:48;98416.22;;;5.09;79.95
49949;BME280;35840;45.982;8.890;2022-11-30T04:51:15;98421.00;;;5.18;80.27
49949;BME280;35840;45.982;8.890;2022-11-30T04:53:42;98417.91;;;5.10;80.13
49949;BME280;35840;45.982;8.890;2022-11-30T04:56:09;98420.56;;;5.07;80.41
49949;BME280;35840;45.982;8.890;2022-11-30T04:58:36;98421.06;;;5.16;79.96
49949;BME280;35840;45.982;8.890;2022-11-30T05:01:04;98425.91;;;5.23;79.93
49949;BME280;35840;45.982;8.890;2022-11-30T05:03:31;98423.50;;;5.20;79.26
49949;BME280;35840;45.982;8.890;2022-11-30T05:05:58;98429.38;;;5.22;79.01
49949;BME280;35840;45.982;8.890;2022-11-30T05:08:24;98428.38;;;5.02;79.41
49949;BME280;35840;45.982;8.890;2022-11-30T05:10:52;98421.50;;;4.57;81.14
49949;BME280;35840;45.982;8.890;2022-11-30T05:13:21;98429.50;;;4.46;81.48
49949;BME280;35840;45.982;8.890;2022-11-30T05:15:48;98432.84;;;4.48;82.07
49949;BME280;35840;45.982;8.890;2022-11-30T05:18:14;98433.09;;;4.65;81.39
49949;BME280;35840;45.982;8.890;2022-11-30T05:20:45;98425.00;;;4.54;81.31
49949;BME280;35840;45.982;8.890;2022-11-30T05:23:13;98429.25;;;4.54;81.68
49949;BME280;35840;45.982;8.890;2022-11-30T05:25:41;98429.91;;;4.59;81.15
49949;BME280;35840;45.982;8.890;2022-11-30T05:28:08;98430.88;;;4.80;80.68
49949;BME280;35840;45.982;8.890;2022-11-30T05:30:37;98421.47;;;4.82;81.41
49949;BME280;35840;45.982;8.890;2022-11-30T05:33:04;98427.00;;;4.93;80.74
49949;BME280;35840;45.982;8.890;2022-11-30T05:35:31;98428.22;;;5.07;80.20
49949;BME280;35840;45.982;8.890;2022-11-30T05:37:58;98437.34;;;5.12;79.61
49949;BME280;35840;45.982;8.890;2022-11-30T05:40:24;98433.69;;;5.20;79.47
49949;BME280;35840;45.982;8.890;2022-11-30T05:42:55;98437.91;;;5.21;79.51
49949;BME280;35840;45.982;8.890;2022-11-30T05:45:22;98429.03;;;5.07;79.36
49949;BME280;35840;45.982;8.890;2022-11-30T05:47:49;98433.19;;;5.10;80.21
49949;BME280;35840;45.982;8.890;2022-11-30T05:50:16;98428.00;;;4.89;80.36
49949;BME280;35840;45.982;8.890;2022-11-30T05:52:43;98435.09;;;4.81;81.45
49949;BME280;35840;45.982;8.890;2022-11-30T05:55:10;98437.81;;;4.76;81.71
49949;BME280;35840;45.982;8.890;2022-11-30T05:57:37;98431.25;;;4.93;81.51
49949;BME280;35840;45.982;8.890;2022-11-30T06:00:06;98418.31;;;4.99;81.55
49949;BME280;35840;45.982;8.890;2022-11-30T06:02:37;98432.19;;;5.14;80.31
49949;BME280;35840;45.982;8.890;2022-11-30T06:05:04;98430.19;;;5.22;80.52
49949;BME280;35840;45.982;8.890;2022-11-30T06:07:31;98425.75;;;5.27;80.92
49949;BME280;35840;45.982;8.890;2022-11-30T06:09:58;98424.16;;;5.25;80.59
49949;BME280;35840;45.982;8.890;2022-11-30T06:12:25;98434.09;;;5.31;80.42
49949;BME280;35840;45.982;8.890;2022-11-30T06:14:52;98427.94;;;5.37;80.05
49949;BME280;35840;45.982;8.890;2022-11-30T06:17:18;98422.59;;;5.43;79.94
49949;BME280;35840;45.982;8.890;2022-11-30T06:19:45;98421.84;;;5.41;79.46
49949;BME280;35840;45.982;8.890;2022-11-30T06:22:12;98433.81;;;5.39;79.57
49949;BME280;35840;45.982;8.890;2022-11-30T06:24:38;98427.06;;;5.38;79.54
49949;BME280;35840;45.982;8.890;2022-11-30T06:27:05;98429.91;;;5.30;79.84
49949;BME280;35840;45.982;8.890;2022-11-30T06:29:35;98433.41;;;5.27;79.35
49949;BME280;35840;45.982;8.890;2022-11-30T06:32:02;98430.81;;;5.29;79.43
49949;BME280;35840;45.982;8.890;2022-11-30T06:34:31;98432.38;;;5.31;79.65
49949;BME280;35840;45.982;8.890;2022-11-30T06:36:58;98438.38;;;5.30;79.82
49949;BME280;35840;45.982;8.890;2022-11-30T06:39:25;98434.53;;;5.42;79.63
49949;BME280;35840;45.982;8.890;2022-11-30T06:42:11;98427.69;;;5.43;79.48
49949;BME280;35840;45.982;8.890;2022-11-30T06:44:38;98432.47;;;5.52;79.23
49949;BME280;35840;45.982;8.890;2022-11-30T06:47:05;98431.78;;;5.47;79.45
49949;BME280;35840;45.982;8.890;2022-11-30T06:49:32;98434.19;;;5.51;79.33
49949;BME280;35840;45.982;8.890;2022-11-30T06:51:58;98434.28;;;5.48;79.39
49949;BME280;35840;45.982;8.890;2022-11-30T06:54:25;98436.97;;;5.45;79.78
49949;BME280;35840;45.982;8.890;2022-11-30T06:56:52;98436.78;;;5.50;80.29
49949;BME280;35840;45.982;8.890;2022-11-30T06:59:19;98436.00;;;5.48;80.31
49949;BME280;35840;45.982;8.890;2022-11-30T07:01:45;98434.94;;;5.54;80.58
49949;BME280;35840;45.982;8.890;2022-11-30T07:04:12;98434.13;;;5.53;80.35
49949;BME280;35840;45.982;8.890;2022-11-30T07:06:39;98438.97;;;5.59;80.71
49949;BME280;35840;45.982;8.890;2022-11-30T07:09:05;98426.53;;;5.51;81.10
49949;BME280;35840;45.982;8.890;2022-11-30T07:11:32;98434.75;;;5.58;81.21
49949;BME280;35840;45.982;8.890;2022-11-30T07:13:59;98439.59;;;5.66;81.01
49949;BME280;35840;45.982;8.890;2022-11-30T07:16:26;98443.13;;;5.62;80.95
49949;BME280;35840;45.982;8.890;2022-11-30T07:18:53;98443.59;;;5.49;81.29
49949;BME280;35840;45.982;8.890;2022-11-30T07:21:19;98448.53;;;5.54;81.00
49949;BME280;35840;45.982;8.890;2022-11-30T07:23:46;98441.72;;;5.55;81.16
49949;BME280;35840;45.982;8.890;2022-11-30T07:26:31;98447.34;;;5.63;80.64
49949;BME280;35840;45.982;8.890;2022-11-30T07:28:58;98452.47;;;5.63;81.03
49949;BME280;35840;45.982;8.890;2022-11-30T07:31:30;98450.97;;;5.57;81.30
49949;BME280;35840;45.982;8.890;2022-11-30T07:33:58;98450.84;;;5.60;81.42
49949;BME280;35840;45.982;8.890;2022-11-30T07:36:28;98451.59;;;5.62;81.42
49949;BME280;35840;45.982;8.890;2022-11-30T07:38:57;98454.22;;;5.61;81.25
49949;BME280;35840;45.982;8.890;2022-11-30T07:41:24;98454.88;;;5.66;81.70
49949;BME280;35840;45.982;8.890;2022-11-30T07:43:51;98464.91;;;5.71;82.09
49949;BME280;35840;45.982;8.890;2022-11-30T07:46:18;98463.00;;;5.76;82.62
49949;BME280;35840;45.982;8.890;2022-11-30T07:48:45;98456.72;;;5.84;82.55
49949;BME280;35840;45.982;8.890;2022-11-30T07:51:14;98464.06;;;5.92;82.50
49949;BME280;35840;45.982;8.890;2022-11-30T07:53:42;98472.91;;;5.83;82.77
49949;BME280;35840;45.982;8.890;2022-11-30T07:56:13;98463.72;;;5.79;82.85
49949;BME280;35840;45.982;8.890;2022-11-30T07:58:41;98466.97;;;5.83;82.35
49949;BME280;35840;45.982;8.890;2022-11-30T08:01:11;98461.03;;;5.82;82.54
49949;BME280;35840;45.982;8.890;2022-11-30T08:03:39;98464.56;;;5.80;82.61
49949;BME280;35840;45.982;8.890;2022-11-30T08:06:11;98467.03;;;5.81;82.81
49949;BME280;35840;45.982;8.890;2022-11-30T08:08:41;98476.41;;;5.81;82.60
49949;BME280;35840;45.982;8.890;2022-11-30T08:11:10;98477.34;;;5.78;82.83
49949;BME280;35840;45.982;8.890;2022-11-30T08:13:37;98475.50;;;5.82;82.65
49949;BME280;35840;45.982;8.890;2022-11-30T08:16:06;98471.97;;;5.86;82.59
49949;BME280;35840;45.982;8.890;2022-11-30T08:18:34;98467.88;;;5.82;82.70
49949;BME280;35840;45.982;8.890;2022-11-30T08:21:04;98472.25;;;5.78;83.59
49949;BME280;35840;45.982;8.890;2022-11-30T08:23:34;98477.88;;;5.86;83.65
49949;BME280;35840;45.982;8.890;2022-11-30T08:26:06;98482.03;;;5.89;83.49
49949;BME280;35840;45.982;8.890;2022-11-30T08:28:33;98485.72;;;5.82;84.01
49949;BME280;35840;45.982;8.890;2022-11-30T08:31:04;98488.41;;;5.79;84.54
49949;BME280;35840;45.982;8.890;2022-11-30T08:33:32;98483.94;;;5.84;84.11
49949;BME280;35840;45.982;8.890;2022-11-30T08:36:14;98488.09;;;5.86;83.76
49949;BME280;35840;45.982;8.890;2022-11-30T08:38:43;98493.91;;;5.90;83.43
49949;BME280;35840;45.982;8.890;2022-11-30T08:41:11;98493.03;;;5.91;83.94
49949;BME280;35840;45.982;8.890;2022-11-30T08:43:38;98496.34;;;5.93;83.57
49949;BME280;35840;45.982;8.890;2022-11-30T08:46:08;98493.78;;;5.93;83.59
49949;BME280;35840;45.982;8.890;2022-11-30T08:48:56;98501.31;;;5.96;83.34
49949;BME280;35840;45.982;8.890;2022-11-30T08:51:38;98502.69;;;6.05;82.96
49949;BME280;35840;45.982;8.890;2022-11-30T08:54:25;98504.25;;;6.09;82.69
49949;BME280;35840;45.982;8.890;2022-11-30T08:56:53;98503.88;;;6.18;82.06
49949;BME280;35840;45.982;8.890;2022-11-30T08:59:19;98500.47;;;6.18;81.54
49949;BME280;35840;45.982;8.890;2022-11-30T09:01:46;98506.56;;;6.15;82.04
49949;BME280;35840;45.982;8.890;2022-11-30T09:04:13;98512.38;;;6.19;81.58
49949;BME280;35840;45.982;8.890;2022-11-30T09:06:40;98517.06;;;6.08;82.01
49949;BME280;35840;45.982;8.890;2022-11-30T09:09:07;98508.41;;;6.12;81.64
49949;BME280;35840;45.982;8.890;2022-11-30T09:11:34;98513.56;;;6.10;81.30
49949;BME280;35840;45.982;8.890;2022-11-30T09:14:02;98517.06;;;6.08;81.58
49949;BME280;35840;45.982;8.890;2022-11-30T09:16:34;98522.91;;;6.11;81.89
49949;BME280;35840;45.982;8.890;2022-11-30T09:19:01;98519.44;;;6.12;81.59
49949;BME280;35840;45.982;8.890;2022-11-30T09:21:28;98523.47;;;6.18;81.41
49949;BME280;35840;45.982;8.890;2022-11-30T09:23:54;98526.88;;;6.18;81.58
49949;BME280;35840;45.982;8.890;2022-11-30T09:26:22;98539.50;;;6.22;81.40
49949;BME280;35840;45.982;8.890;2022-11-30T09:28:52;98530.81;;;6.26;81.18
49949;BME280;35840;45.982;8.890;2022-11-30T09:31:23;98528.22;;;6.27;81.00
49949;BME280;35840;45.982;8.890;2022-11-30T09:33:51;98534.03;;;6.31;81.55
49949;BME280;35840;45.982;8.890;2022-11-30T09:36:20;98534.84;;;6.31;80.76
49949;BME280;35840;45.982;8.890;2022-11-30T09:38:47;98533.63;;;6.19;80.83
49949;BME280;35840;45.982;8.890;2022-11-30T09:44:22;98542.00;;;6.23;81.80
49949;BME280;35840;45.982;8.890;2022-11-30T09:49:30;98541.28;;;6.19;81.86
49949;BME280;35840;45.982;8.890;2022-11-30T09:52:02;98547.28;;;6.18;81.78
49949;BME280;35840;45.982;8.890;2022-11-30T09:54:36;98544.00;;;6.15;82.59
49949;BME280;35840;45.982;8.890;2022-11-30T09:59:56;98537.88;;;6.19;81.78
49949;BME280;35840;45.982;8.890;2022-11-30T10:02:36;98545.34;;;6.24;81.12
49949;BME280;35840;45.982;8.890;2022-11-30T10:05:15;98541.09;;;6.24;81.27
49949;BME280;35840;45.982;8.890;2022-11-30T10:14:26;98541.03;;;6.03;81.37
49949;BME280;35840;45.982;8.890;2022-11-30T10:16:44;98539.84;;;5.90;81.18
49949;BME280;35840;45.982;8.890;2022-11-30T10:22:10;98533.94;;;5.88;81.87
49949;BME280;35840;45.982;8.890;2022-11-30T10:27:51;98538.75;;;5.97;81.77
49949;BME280;35840;45.982;8.890;2022-11-30T10:30:21;98536.94;;;5.99;81.84
49949;BME280;35840;45.982;8.890;2022-11-30T10:32:53;98536.06;;;6.00;80.89
49949;BME280;35840;45.982;8.890;2022-11-30T10:35:28;98529.22;;;6.01;80.88
49949;BME280;35840;45.982;8.890;2022-11-30T10:38:03;98522.34;;;6.03;81.14
49949;BME280;35840;45.982;8.890;2022-11-30T10:40:46;98529.19;;;6.02;80.72
49949;BME280;35840;45.982;8.890;2022-11-30T10:43:31;98523.06;;;6.07;80.97
49949;BME280;35840;45.982;8.890;2022-11-30T10:46:04;98534.81;;;6.11;80.92
49949;BME280;35840;45.982;8.890;2022-11-30T10:48:38;98534.88;;;6.09;81.10
49949;BME280;35840;45.982;8.890;2022-11-30T10:51:06;98536.59;;;6.09;80.34
49949;BME280;35840;45.982;8.890;2022-11-30T10:53:33;98538.34;;;6.08;79.83
49949;BME280;35840;45.982;8.890;2022-11-30T10:56:04;98533.97;;;6.10;80.49
49949;BME280;35840;45.982;8.890;2022-11-30T10:58:37;98543.25;;;6.13;80.15
49949;BME280;35840;45.982;8.890;2022-11-30T11:01:09;98541.72;;;6.09;79.96
49949;BME280;35840;45.982;8.890;2022-11-30T11:03:36;98542.72;;;6.05;80.40
49949;BME280;35840;45.982;8.890;2022-11-30T11:06:08;98526.41;;;6.09;80.29
49949;BME280;35840;45.982;8.890;2022-11-30T11:08:36;98521.88;;;6.15;80.64
49949;BME280;35840;45.982;8.890;2022-11-30T11:11:03;98529.59;;;6.14;79.52
49949;BME280;35840;45.982;8.890;2022-11-30T11:13:41;98517.72;;;6.13;78.85
49949;BME280;35840;45.982;8.890;2022-11-30T11:16:10;98530.47;;;6.13;79.24
49949;BME280;35840;45.982;8.890;2022-11-30T11:18:55;98524.44;;;6.15;78.71
49949;BME280;35840;45.982;8.890;2022-11-30T11:21:22;98522.69;;;6.16;79.49
49949;BME280;35840;45.982;8.890;2022-11-30T11:23:52;98525.19;;;6.17;79.37
49949;BME280;35840;45.982;8.890;2022-11-30T11:26:24;98520.16;;;6.16;79.05
49949;BME280;35840;45.982;8.890;2022-11-30T11:28:53;98516.59;;;6.20;78.84
49949;BME280;35840;45.982;8.890;2022-11-30T11:31:43;98515.75;;;6.19;79.22
49949;BME280;35840;45.982;8.890;2022-11-30T11:34:34;98512.31;;;6.20;78.86
49949;BME280;35840;45.982;8.890;2022-11-30T11:37:16;98520.03;;;6.19;78.88
49949;BME280;35840;45.982;8.890;2022-11-30T11:39:58;98521.50;;;6.25;78.81
49949;BME280;35840;45.982;8.890;2022-11-30T11:42:28;98522.50;;;6.20;79.52
49949;BME280;35840;45.982;8.890;2022-11-30T11:44:57;98518.81;;;6.28;78.98
49949;BME280;35840;45.982;8.890;2022-11-30T11:47:38;98515.50;;;6.26;78.61
49949;BME280;35840;45.982;8.890;2022-11-30T11:50:30;98524.00;;;6.26;78.56
49949;BME280;35840;45.982;8.890;2022-11-30T11:53:22;98527.31;;;6.28;77.66
49949;BME280;35840;45.982;8.890;2022-11-30T11:58:42;98521.69;;;6.20;77.43
49949;BME280;35840;45.982;8.890;2022-11-30T12:01:18;98516.47;;;6.23;77.80
49949;BME280;35840;45.982;8.890;2022-11-30T12:06:55;98515.75;;;6.19;78.16
49949;BME280;35840;45.982;8.890;2022-11-30T12:09:35;98514.09;;;6.18;78.39
49949;BME280;35840;45.982;8.890;2022-11-30T12:12:11;98511.34;;;6.23;78.67
49949;BME280;35840;45.982;8.890;2022-11-30T12:14:38;98509.75;;;6.20;77.65
49949;BME280;35840;45.982;8.890;2022-11-30T12:17:41;98509.59;;;6.25;78.38
49949;BME280;35840;45.982;8.890;2022-11-30T12:25:40;98502.03;;;6.22;78.01
49949;BME280;35840;45.982;8.890;2022-11-30T12:28:21;98501.13;;;6.23;78.25
49949;BME280;35840;45.982;8.890;2022-11-30T12:31:16;98504.34;;;6.28;76.81
49949;BME280;35840;45.982;8.890;2022-11-30T12:38:57;98501.28;;;6.20;77.34
49949;BME280;35840;45.982;8.890;2022-11-30T12:44:33;98500.31;;;6.23;76.51
49949;BME280;35840;45.982;8.890;2022-11-30T13:01:17;98502.03;;;6.22;78.93
49949;BME280;35840;45.982;8.890;2022-11-30T13:03:54;98501.28;;;6.20;79.34
49949;BME280;35840;45.982;8.890;2022-11-30T13:06:30;98499.41;;;6.24;79.58
49949;BME280;35840;45.982;8.890;2022-11-30T13:09:03;98496.50;;;6.33;78.94
49949;BME280;35840;45.982;8.890;2022-11-30T13:11:45;98500.94;;;6.28;78.84
49949;BME280;35840;45.982;8.890;2022-11-30T13:14:17;98495.16;;;6.24;77.96
49949;BME280;35840;45.982;8.890;2022-11-30T13:16:49;98503.44;;;6.29;78.38
49949;BME280;35840;45.982;8.890;2022-11-30T13:21:52;98501.66;;;6.31;78.02
49949;BME280;35840;45.982;8.890;2022-11-30T13:24:28;98509.44;;;6.28;78.25
49949;BME280;35840;45.982;8.890;2022-11-30T13:32:33;98503.28;;;6.12;79.63
49949;BME280;35840;45.982;8.890;2022-11-30T13:40:59;98491.09;;;5.96;80.25
49949;BME280;35840;45.982;8.890;2022-11-30T13:43:34;98497.03;;;5.98;80.50
49949;BME280;35840;45.982;8.890;2022-11-30T13:46:26;98510.47;;;6.02;80.33
49949;BME280;35840;45.982;8.890;2022-11-30T13:49:11;98503.94;;;5.95;80.42
49949;BME280;35840;45.982;8.890;2022-11-30T13:51:44;98510.53;;;6.00;80.43
49949;BME280;35840;45.982;8.890;2022-11-30T13:54:45;98507.19;;;6.00;80.54
49949;BME280;35840;45.982;8.890;2022-11-30T13:59:48;98511.66;;;5.93;80.45
49949;BME280;35840;45.982;8.890;2022-11-30T14:08:08;98508.78;;;6.02;80.54
49949;BME280;35840;45.982;8.890;2022-11-30T14:10:38;98499.72;;;5.94;80.81
49949;BME280;35840;45.982;8.890;2022-11-30T14:20:41;98514.97;;;5.95;81.44
49949;BME280;35840;45.982;8.890;2022-11-30T14:26:19;98525.44;;;6.11;80.99
49949;BME280;35840;45.982;8.890;2022-11-30T14:31:24;98521.16;;;6.12;80.88
49949;BME280;35840;45.982;8.890;2022-11-30T14:34:08;98524.59;;;6.11;80.87
49949;BME280;35840;45.982;8.890;2022-11-30T14:36:45;98527.06;;;6.14;81.19
49949;BME280;35840;45.982;8.890;2022-11-30T14:39:31;98527.88;;;6.14;80.28
49949;BME280;35840;45.982;8.890;2022-11-30T14:41:59;98521.94;;;6.14;79.77
49949;BME280;35840;45.982;8.890;2022-11-30T14:44:26;98515.31;;;6.10;79.95
49949;BME280;35840;45.982;8.890;2022-11-30T14:46:53;98536.22;;;6.18;80.42
49949;BME280;35840;45.982;8.890;2022-11-30T14:49:22;98531.09;;;6.19;80.51
49949;BME280;35840;45.982;8.890;2022-11-30T14:51:58;98531.91;;;6.20;79.70
49949;BME280;35840;45.982;8.890;2022-11-30T14:57:22;98522.97;;;6.10;79.58
49949;BME280;35840;45.982;8.890;2022-11-30T14:59:53;98533.84;;;6.13;79.71
49949;BME280;35840;45.982;8.890;2022-11-30T15:02:32;98539.81;;;6.14;79.03
49949;BME280;35840;45.982;8.890;2022-11-30T15:05:01;98534.75;;;6.12;79.59
49949;BME280;35840;45.982;8.890;2022-11-30T15:07:29;98530.84;;;6.03;80.06
49949;BME280;35840;45.982;8.890;2022-11-30T15:10:02;98533.09;;;6.11;80.74
49949;BME280;35840;45.982;8.890;2022-11-30T15:12:29;98541.84;;;6.06;80.62